sensor_id;sensor_type;location;lat;lon;timestamp;P1;durP1;ratioP1;P2;durP2;ratioP2
62929;SDS011;49036;42.782;23.108;2023-03-01T00:00:36;5.53;;;2.00;;
62929;SDS011;49036;42.782;23.108;2023-03-01T00:03:02;4.75;;;2.53;;
62929;SDS011;49036;42.782;23.108;2023-03-01T00:05:27;3.15;;;2.45;;
62929;SDS011;49036;42.782;23.108;2023-03-01T00:07:53;3.10;;;2.17;;
62929;SDS011;49036;42.782;23.108;2023-03-01T00:10:18;3.22;;;2.33;;
62929;SDS011;49036;42.782;23.108;2023-03-01T00:12:44;2.90;;;1.80;;
62929;SDS011;49036;42.782;23.108;2023-03-01T00:15:09;3.53;;;2.97;;
62929;SDS011;49036;42.782;23.108;2023-03-01T00:17:35;4.13;;;2.13;;
62929;SDS011;49036;42.782;23.108;2023-03-01T00:20:01;2.63;;;2.08;;
62929;SDS011;49036;42.782;23.108;2023-03-01T00:22:26;3.25;;;2.28;;
62929;SDS011;49036;42.782;23.108;2023-03-01T00:24:53;3.17;;;2.05;;
62929;SDS011;49036;42.782;23.108;2023-03-01T00:27:19;3.05;;;2.03;;
62929;SDS011;49036;42.782;23.108;2023-03-01T00:29:44;3.50;;;2.50;;
62929;SDS011;49036;42.782;23.108;2023-03-01T00:32:10;4.05;;;2.05;;
62929;SDS011;49036;42.782;23.108;2023-03-01T00:34:35;5.07;;;1.88;;
62929;SDS011;49036;42.782;23.108;2023-03-01T00:37:01;4.45;;;2.40;;
62929;SDS011;49036;42.782;23.108;2023-03-01T00:39:30;2.35;;;2.00;;
62929;SDS011;49036;42.782;23.108;2023-03-01T00:41:56;4.20;;;2.47;;
62929;SDS011;49036;42.782;23.108;2023-03-01T00:44:22;4.22;;;2.35;;
62929;SDS011;49036;42.782;23.108;2023-03-01T00:46:48;3.45;;;1.90;;
62929;SDS011;49036;42.782;23.108;2023-03-01T00:49:13;2.00;;;1.80;;
62929;SDS011;49036;42.782;23.108;2023-03-01T00:51:39;2.97;;;1.98;;
62929;SDS011;49036;42.782;23.108;2023-03-01T00:54:09;3.08;;;2.15;;
62929;SDS011;49036;42.782;23.108;2023-03-01T00:56:34;2.08;;;1.65;;
62929;SDS011;49036;42.782;23.108;2023-03-01T00:59:00;1.80;;;1.58;;
62929;SDS011;49036;42.782;23.108;2023-03-01T01:01:26;2.55;;;1.90;;
62929;SDS011;49036;42.782;23.108;2023-03-01T01:03:57;2.22;;;2.03;;
62929;SDS011;49036;42.782;23.108;2023-03-01T01:06:30;1.65;;;1.55;;
62929;SDS011;49036;42.782;23.108;2023-03-01T01:08:58;3.60;;;2.15;;
62929;SDS011;49036;42.782;23.108;2023-03-01T01:11:24;2.20;;;1.92;;
62929;SDS011;49036;42.782;23.108;2023-03-01T01:13:51;1.83;;;1.65;;
62929;SDS011;49036;42.782;23.108;2023-03-01T01:16:18;3.55;;;2.13;;
62929;SDS011;49036;42.782;23.108;2023-03-01T01:18:45;6.63;;;2.65;;
62929;SDS011;49036;42.782;23.108;2023-03-01T01:21:12;2.08;;;1.80;;
62929;SDS011;49036;42.782;23.108;2023-03-01T01:23:40;1.98;;;1.40;;
62929;SDS011;49036;42.782;23.108;2023-03-01T01:26:07;3.50;;;1.63;;
62929;SDS011;49036;42.782;23.108;2023-03-01T01:28:35;2.72;;;2.08;;
62929;SDS011;49036;42.782;23.108;2023-03-01T01:31:00;1.95;;;1.77;;
62929;SDS011;49036;42.782;23.108;2023-03-01T01:33:26;2.35;;;2.15;;
62929;SDS011;49036;42.782;23.108;2023-03-01T01:35:52;3.50;;;2.05;;
62929;SDS011;49036;42.782;23.108;2023-03-01T01:38:18;2.78;;;1.83;;
62929;SDS011;49036;42.782;23.108;2023-03-01T01:40:44;2.60;;;1.75;;
62929;SDS011;49036;42.782;23.108;2023-03-01T01:43:21;3.35;;;1.92;;
62929;SDS011;49036;42.782;23.108;2023-03-01T01:45:49;3.55;;;2.17;;
62929;SDS011;49036;42.782;23.108;2023-03-01T01:48:24;2.83;;;1.88;;
62929;SDS011;49036;42.782;23.108;2023-03-01T01:51:05;3.85;;;2.03;;
62929;SDS011;49036;42.782;23.108;2023-03-01T01:53:33;3.80;;;1.75;;
62929;SDS011;49036;42.782;23.108;2023-03-01T01:55:59;1.80;;;1.58;;
62929;SDS011;49036;42.782;23.108;2023-03-01T01:58:26;3.13;;;1.98;;
62929;SDS011;49036;42.782;23.108;2023-03-01T02:00:54;3.83;;;2.08;;
62929;SDS011;49036;42.782;23.108;2023-03-01T02:03:22;2.92;;;2.20;;
62929;SDS011;49036;42.782;23.108;2023-03-01T02:08:41;1.65;;;1.30;;
62929;SDS011;49036;42.782;23.108;2023-03-01T02:11:07;4.10;;;1.83;;
62929;SDS011;49036;42.782;23.108;2023-03-01T02:13:35;2.40;;;1.85;;
62929;SDS011;49036;42.782;23.108;2023-03-01T02:16:08;2.15;;;1.58;;
62929;SDS011;49036;42.782;23.108;2023-03-01T02:18:35;1.95;;;1.70;;
62929;SDS011;49036;42.782;23.108;2023-03-01T02:24:22;1.10;;;1.00;;
62929;SDS011;49036;42.782;23.108;2023-03-01T02:27:04;2.50;;;1.48;;
62929;SDS011;49036;42.782;23.108;2023-03-01T02:29:30;1.88;;;1.77;;
62929;SDS011;49036;42.782;23.108;2023-03-01T02:31:56;2.22;;;1.95;;
62929;SDS011;49036;42.782;23.108;2023-03-01T02:34:24;3.00;;;1.92;;
62929;SDS011;49036;42.782;23.108;2023-03-01T02:37:00;2.45;;;1.70;;
62929;SDS011;49036;42.782;23.108;2023-03-01T02:39:33;2.22;;;1.75;;
62929;SDS011;49036;42.782;23.108;2023-03-01T02:42:07;2.70;;;1.73;;
62929;SDS011;49036;42.782;23.108;2023-03-01T02:44:37;2.97;;;1.65;;
62929;SDS011;49036;42.782;23.108;2023-03-01T02:47:03;2.50;;;1.90;;
62929;SDS011;49036;42.782;23.108;2023-03-01T02:49:32;1.67;;;1.52;;
62929;SDS011;49036;42.782;23.108;2023-03-01T02:54:46;2.42;;;1.98;;
62929;SDS011;49036;42.782;23.108;2023-03-01T02:57:16;1.65;;;1.50;;
62929;SDS011;49036;42.782;23.108;2023-03-01T02:59:43;1.85;;;1.70;;
62929;SDS011;49036;42.782;23.108;2023-03-01T03:02:23;2.17;;;1.63;;
62929;SDS011;49036;42.782;23.108;2023-03-01T03:07:39;3.08;;;1.65;;
62929;SDS011;49036;42.782;23.108;2023-03-01T03:10:07;3.92;;;2.05;;
62929;SDS011;49036;42.782;23.108;2023-03-01T03:12:36;2.83;;;1.80;;
62929;SDS011;49036;42.782;23.108;2023-03-01T03:17:34;1.65;;;1.55;;
62929;SDS011;49036;42.782;23.108;2023-03-01T03:20:01;3.10;;;1.65;;
62929;SDS011;49036;42.782;23.108;2023-03-01T03:22:28;2.20;;;1.55;;
62929;SDS011;49036;42.782;23.108;2023-03-01T03:24:54;1.45;;;1.33;;
62929;SDS011;49036;42.782;23.108;2023-03-01T03:27:20;5.07;;;3.03;;
62929;SDS011;49036;42.782;23.108;2023-03-01T03:29:45;1.80;;;1.27;;
62929;SDS011;49036;42.782;23.108;2023-03-01T03:32:11;2.20;;;1.90;;
62929;SDS011;49036;42.782;23.108;2023-03-01T03:34:36;2.70;;;1.92;;
62929;SDS011;49036;42.782;23.108;2023-03-01T03:37:02;2.08;;;1.75;;
62929;SDS011;49036;42.782;23.108;2023-03-01T03:39:28;6.72;;;4.57;;
62929;SDS011;49036;42.782;23.108;2023-03-01T03:41:54;2.83;;;2.53;;
62929;SDS011;49036;42.782;23.108;2023-03-01T03:44:20;2.22;;;1.25;;
62929;SDS011;49036;42.782;23.108;2023-03-01T03:46:46;2.03;;;1.83;;
62929;SDS011;49036;42.782;23.108;2023-03-01T03:49:11;1.45;;;1.35;;
62929;SDS011;49036;42.782;23.108;2023-03-01T03:51:37;6.13;;;1.45;;
62929;SDS011;49036;42.782;23.108;2023-03-01T03:54:02;2.25;;;2.03;;
62929;SDS011;49036;42.782;23.108;2023-03-01T03:56:28;1.95;;;1.40;;
62929;SDS011;49036;42.782;23.108;2023-03-01T03:58:54;1.75;;;1.65;;
62929;SDS011;49036;42.782;23.108;2023-03-01T04:01:19;2.13;;;1.50;;
62929;SDS011;49036;42.782;23.108;2023-03-01T04:03:45;1.83;;;1.73;;
62929;SDS011;49036;42.782;23.108;2023-03-01T04:06:12;2.47;;;1.42;;
62929;SDS011;49036;42.782;23.108;2023-03-01T04:08:38;4.93;;;1.70;;
62929;SDS011;49036;42.782;23.108;2023-03-01T04:11:04;1.42;;;1.20;;
62929;SDS011;49036;42.782;23.108;2023-03-01T04:13:49;2.92;;;1.70;;
62929;SDS011;49036;42.782;23.108;2023-03-01T04:16:15;2.13;;;1.63;;
62929;SDS011;49036;42.782;23.108;2023-03-01T04:21:07;1.88;;;1.63;;
62929;SDS011;49036;42.782;23.108;2023-03-01T04:23:32;5.13;;;1.83;;
62929;SDS011;49036;42.782;23.108;2023-03-01T04:25:58;3.15;;;1.70;;
62929;SDS011;49036;42.782;23.108;2023-03-01T04:28:25;5.53;;;3.03;;
62929;SDS011;49036;42.782;23.108;2023-03-01T04:30:56;2.63;;;1.95;;
62929;SDS011;49036;42.782;23.108;2023-03-01T04:33:23;1.45;;;1.35;;
62929;SDS011;49036;42.782;23.108;2023-03-01T04:35:50;2.20;;;1.83;;
62929;SDS011;49036;42.782;23.108;2023-03-01T04:38:16;4.25;;;2.05;;
62929;SDS011;49036;42.782;23.108;2023-03-01T04:40:43;2.70;;;2.50;;
62929;SDS011;49036;42.782;23.108;2023-03-01T04:43:09;5.00;;;3.22;;
62929;SDS011;49036;42.782;23.108;2023-03-01T04:45:36;1.90;;;1.63;;
62929;SDS011;49036;42.782;23.108;2023-03-01T04:48:02;2.35;;;1.23;;
62929;SDS011;49036;42.782;23.108;2023-03-01T04:50:28;3.72;;;3.10;;
62929;SDS011;49036;42.782;23.108;2023-03-01T04:52:54;4.35;;;3.47;;
62929;SDS011;49036;42.782;23.108;2023-03-01T04:55:23;3.05;;;2.35;;
62929;SDS011;49036;42.782;23.108;2023-03-01T04:57:50;5.00;;;2.20;;
62929;SDS011;49036;42.782;23.108;2023-03-01T05:00:16;9.13;;;5.53;;
62929;SDS011;49036;42.782;23.108;2023-03-01T05:02:57;5.50;;;2.63;;
62929;SDS011;49036;42.782;23.108;2023-03-01T05:05:30;2.10;;;1.90;;
62929;SDS011;49036;42.782;23.108;2023-03-01T05:07:59;2.55;;;2.10;;
62929;SDS011;49036;42.782;23.108;2023-03-01T05:10:26;4.07;;;2.80;;
62929;SDS011;49036;42.782;23.108;2023-03-01T05:12:54;5.68;;;3.78;;
62929;SDS011;49036;42.782;23.108;2023-03-01T05:15:22;11.70;;;5.13;;
62929;SDS011;49036;42.782;23.108;2023-03-01T05:17:50;4.13;;;3.22;;
62929;SDS011;49036;42.782;23.108;2023-03-01T05:20:17;6.05;;;2.28;;
62929;SDS011;49036;42.782;23.108;2023-03-01T05:22:43;4.22;;;2.58;;
62929;SDS011;49036;42.782;23.108;2023-03-01T05:25:09;8.70;;;3.53;;
62929;SDS011;49036;42.782;23.108;2023-03-01T05:27:34;3.70;;;2.38;;
62929;SDS011;49036;42.782;23.108;2023-03-01T05:30:01;11.07;;;6.38;;
62929;SDS011;49036;42.782;23.108;2023-03-01T05:32:42;9.40;;;6.78;;
62929;SDS011;49036;42.782;23.108;2023-03-01T05:35:12;6.45;;;3.97;;
62929;SDS011;49036;42.782;23.108;2023-03-01T05:37:40;2.03;;;1.90;;
62929;SDS011;49036;42.782;23.108;2023-03-01T05:40:07;3.92;;;2.92;;
62929;SDS011;49036;42.782;23.108;2023-03-01T05:42:41;2.85;;;2.08;;
62929;SDS011;49036;42.782;23.108;2023-03-01T05:45:08;3.17;;;2.20;;
62929;SDS011;49036;42.782;23.108;2023-03-01T05:47:34;4.50;;;3.05;;
62929;SDS011;49036;42.782;23.108;2023-03-01T05:50:00;1.60;;;1.50;;
62929;SDS011;49036;42.782;23.108;2023-03-01T05:52:26;3.10;;;2.35;;
62929;SDS011;49036;42.782;23.108;2023-03-01T05:54:52;7.18;;;4.55;;
62929;SDS011;49036;42.782;23.108;2023-03-01T05:57:17;7.13;;;3.92;;
62929;SDS011;49036;42.782;23.108;2023-03-01T05:59:43;10.05;;;4.55;;
62929;SDS011;49036;42.782;23.108;2023-03-01T06:02:08;3.08;;;2.25;;
62929;SDS011;49036;42.782;23.108;2023-03-01T06:04:34;6.47;;;2.90;;
62929;SDS011;49036;42.782;23.108;2023-03-01T06:06:59;9.15;;;4.00;;
62929;SDS011;49036;42.782;23.108;2023-03-01T06:09:25;4.43;;;3.10;;
62929;SDS011;49036;42.782;23.108;2023-03-01T06:11:51;2.92;;;2.05;;
62929;SDS011;49036;42.782;23.108;2023-03-01T06:14:16;5.65;;;2.80;;
62929;SDS011;49036;42.782;23.108;2023-03-01T06:16:42;2.38;;;2.17;;
62929;SDS011;49036;42.782;23.108;2023-03-01T06:19:07;3.92;;;2.95;;
62929;SDS011;49036;42.782;23.108;2023-03-01T06:21:33;6.15;;;2.85;;
62929;SDS011;49036;42.782;23.108;2023-03-01T06:23:58;2.92;;;2.53;;
62929;SDS011;49036;42.782;23.108;2023-03-01T06:26:24;6.60;;;2.30;;
62929;SDS011;49036;42.782;23.108;2023-03-01T06:28:49;4.45;;;3.08;;
62929;SDS011;49036;42.782;23.108;2023-03-01T06:31:15;4.00;;;1.77;;
62929;SDS011;49036;42.782;23.108;2023-03-01T06:33:40;3.05;;;1.30;;
62929;SDS011;49036;42.782;23.108;2023-03-01T06:36:06;2.50;;;1.83;;
62929;SDS011;49036;42.782;23.108;2023-03-01T06:38:32;3.10;;;1.95;;
62929;SDS011;49036;42.782;23.108;2023-03-01T06:40:58;4.43;;;3.03;;
62929;SDS011;49036;42.782;23.108;2023-03-01T06:43:24;5.88;;;2.88;;
62929;SDS011;49036;42.782;23.108;2023-03-01T06:45:49;7.13;;;3.45;;
62929;SDS011;49036;42.782;23.108;2023-03-01T06:48:15;2.55;;;1.92;;
62929;SDS011;49036;42.782;23.108;2023-03-01T06:50:40;3.08;;;1.70;;
62929;SDS011;49036;42.782;23.108;2023-03-01T06:53:06;2.08;;;1.40;;
62929;SDS011;49036;42.782;23.108;2023-03-01T06:55:32;2.35;;;1.88;;
62929;SDS011;49036;42.782;23.108;2023-03-01T06:57:58;3.47;;;2.20;;
62929;SDS011;49036;42.782;23.108;2023-03-01T07:00:24;3.85;;;2.30;;
62929;SDS011;49036;42.782;23.108;2023-03-01T07:02:51;6.53;;;3.25;;
62929;SDS011;49036;42.782;23.108;2023-03-01T07:05:17;2.38;;;2.17;;
62929;SDS011;49036;42.782;23.108;2023-03-01T07:07:42;6.13;;;3.20;;
62929;SDS011;49036;42.782;23.108;2023-03-01T07:10:08;6.18;;;3.65;;
62929;SDS011;49036;42.782;23.108;2023-03-01T07:15:00;4.45;;;2.95;;
62929;SDS011;49036;42.782;23.108;2023-03-01T07:17:25;2.65;;;2.00;;
62929;SDS011;49036;42.782;23.108;2023-03-01T07:19:50;4.57;;;2.50;;
62929;SDS011;49036;42.782;23.108;2023-03-01T07:22:16;3.97;;;2.00;;
62929;SDS011;49036;42.782;23.108;2023-03-01T07:24:42;3.88;;;2.13;;
62929;SDS011;49036;42.782;23.108;2023-03-01T07:27:08;5.18;;;2.53;;
62929;SDS011;49036;42.782;23.108;2023-03-01T07:29:33;1.83;;;1.65;;
62929;SDS011;49036;42.782;23.108;2023-03-01T07:32:01;3.72;;;2.53;;
62929;SDS011;49036;42.782;23.108;2023-03-01T07:34:27;2.65;;;1.88;;
62929;SDS011;49036;42.782;23.108;2023-03-01T07:36:53;3.13;;;2.10;;
62929;SDS011;49036;42.782;23.108;2023-03-01T07:39:18;1.75;;;1.55;;
62929;SDS011;49036;42.782;23.108;2023-03-01T07:41:44;3.08;;;1.73;;
62929;SDS011;49036;42.782;23.108;2023-03-01T07:44:09;3.15;;;2.05;;
62929;SDS011;49036;42.782;23.108;2023-03-01T07:46:35;3.10;;;2.75;;
62929;SDS011;49036;42.782;23.108;2023-03-01T07:49:01;2.75;;;2.40;;
62929;SDS011;49036;42.782;23.108;2023-03-01T07:51:26;3.30;;;2.40;;
62929;SDS011;49036;42.782;23.108;2023-03-01T07:53:52;3.90;;;1.90;;
62929;SDS011;49036;42.782;23.108;2023-03-01T07:56:17;1.75;;;1.60;;
62929;SDS011;49036;42.782;23.108;2023-03-01T07:58:44;2.20;;;1.80;;
62929;SDS011;49036;42.782;23.108;2023-03-01T08:01:11;2.13;;;1.95;;
62929;SDS011;49036;42.782;23.108;2023-03-01T08:03:39;2.45;;;1.95;;
62929;SDS011;49036;42.782;23.108;2023-03-01T08:06:06;3.05;;;2.40;;
62929;SDS011;49036;42.782;23.108;2023-03-01T08:08:33;2.42;;;1.98;;
62929;SDS011;49036;42.782;23.108;2023-03-01T08:11:00;2.92;;;2.17;;
62929;SDS011;49036;42.782;23.108;2023-03-01T08:13:27;3.42;;;1.92;;
62929;SDS011;49036;42.782;23.108;2023-03-01T08:15:53;3.05;;;2.22;;
62929;SDS011;49036;42.782;23.108;2023-03-01T08:18:19;4.50;;;1.67;;
62929;SDS011;49036;42.782;23.108;2023-03-01T08:20:46;2.85;;;2.20;;
62929;SDS011;49036;42.782;23.108;2023-03-01T08:23:12;3.55;;;2.38;;
62929;SDS011;49036;42.782;23.108;2023-03-01T08:25:37;2.50;;;1.70;;
62929;SDS011;49036;42.782;23.108;2023-03-01T08:30:29;3.00;;;2.25;;
62929;SDS011;49036;42.782;23.108;2023-03-01T08:32:55;2.42;;;2.22;;
62929;SDS011;49036;42.782;23.108;2023-03-01T08:35:20;2.78;;;1.48;;
62929;SDS011;49036;42.782;23.108;2023-03-01T08:37:46;3.83;;;1.83;;
62929;SDS011;49036;42.782;23.108;2023-03-01T08:40:12;15.32;;;6.00;;
62929;SDS011;49036;42.782;23.108;2023-03-01T08:42:40;15.35;;;6.15;;
62929;SDS011;49036;42.782;23.108;2023-03-01T08:45:08;14.68;;;8.02;;
62929;SDS011;49036;42.782;23.108;2023-03-01T08:47:34;4.22;;;3.40;;
62929;SDS011;49036;42.782;23.108;2023-03-01T08:49:59;5.47;;;3.83;;
62929;SDS011;49036;42.782;23.108;2023-03-01T08:52:25;4.47;;;3.60;;
62929;SDS011;49036;42.782;23.108;2023-03-01T08:57:17;5.35;;;4.05;;
62929;SDS011;49036;42.782;23.108;2023-03-01T08:59:43;4.50;;;2.88;;
62929;SDS011;49036;42.782;23.108;2023-03-01T09:02:10;2.05;;;1.85;;
62929;SDS011;49036;42.782;23.108;2023-03-01T09:04:38;4.10;;;2.80;;
62929;SDS011;49036;42.782;23.108;2023-03-01T09:07:03;3.42;;;2.70;;
62929;SDS011;49036;42.782;23.108;2023-03-01T09:09:29;2.75;;;1.92;;
62929;SDS011;49036;42.782;23.108;2023-03-01T09:11:55;3.38;;;2.83;;
62929;SDS011;49036;42.782;23.108;2023-03-01T09:14:20;4.78;;;3.08;;
62929;SDS011;49036;42.782;23.108;2023-03-01T09:16:46;4.75;;;3.03;;
62929;SDS011;49036;42.782;23.108;2023-03-01T09:19:11;5.25;;;2.85;;
62929;SDS011;49036;42.782;23.108;2023-03-01T09:24:03;6.30;;;3.20;;
62929;SDS011;49036;42.782;23.108;2023-03-01T09:26:28;4.05;;;3.05;;
62929;SDS011;49036;42.782;23.108;2023-03-01T09:28:54;3.08;;;2.78;;
62929;SDS011;49036;42.782;23.108;2023-03-01T09:31:22;3.38;;;2.95;;
62929;SDS011;49036;42.782;23.108;2023-03-01T09:33:49;3.92;;;2.47;;
62929;SDS011;49036;42.782;23.108;2023-03-01T09:36:18;3.00;;;2.70;;
62929;SDS011;49036;42.782;23.108;2023-03-01T09:38:45;3.40;;;2.97;;
62929;SDS011;49036;42.782;23.108;2023-03-01T09:43:50;3.85;;;3.20;;
62929;SDS011;49036;42.782;23.108;2023-03-01T09:46:19;3.17;;;2.75;;
62929;SDS011;49036;42.782;23.108;2023-03-01T09:48:56;4.68;;;3.50;;
62929;SDS011;49036;42.782;23.108;2023-03-01T09:54:02;4.78;;;4.07;;
62929;SDS011;49036;42.782;23.108;2023-03-01T09:56:32;5.20;;;3.78;;
62929;SDS011;49036;42.782;23.108;2023-03-01T10:01:34;6.97;;;4.43;;
62929;SDS011;49036;42.782;23.108;2023-03-01T10:06:45;4.78;;;3.45;;
62929;SDS011;49036;42.782;23.108;2023-03-01T10:09:23;3.88;;;3.25;;
62929;SDS011;49036;42.782;23.108;2023-03-01T10:11:50;2.25;;;2.00;;
62929;SDS011;49036;42.782;23.108;2023-03-01T10:19:44;6.88;;;3.83;;
62929;SDS011;49036;42.782;23.108;2023-03-01T10:22:21;4.25;;;2.30;;
62929;SDS011;49036;42.782;23.108;2023-03-01T10:24:59;4.45;;;3.65;;
62929;SDS011;49036;42.782;23.108;2023-03-01T10:32:48;8.45;;;6.10;;
62929;SDS011;49036;42.782;23.108;2023-03-01T10:38:04;12.27;;;6.22;;
62929;SDS011;49036;42.782;23.108;2023-03-01T10:40:32;12.65;;;6.47;;
62929;SDS011;49036;42.782;23.108;2023-03-01T10:43:02;4.82;;;3.50;;
62929;SDS011;49036;42.782;23.108;2023-03-01T10:50:41;12.13;;;4.90;;
62929;SDS011;49036;42.782;23.108;2023-03-01T10:53:18;7.50;;;3.90;;
62929;SDS011;49036;42.782;23.108;2023-03-01T10:56:01;3.05;;;2.33;;
62929;SDS011;49036;42.782;23.108;2023-03-01T10:58:30;8.20;;;4.35;;
62929;SDS011;49036;42.782;23.108;2023-03-01T11:03:33;2.28;;;2.08;;
62929;SDS011;49036;42.782;23.108;2023-03-01T11:08:41;2.85;;;2.13;;
62929;SDS011;49036;42.782;23.108;2023-03-01T11:13:39;2.67;;;2.47;;
62929;SDS011;49036;42.782;23.108;2023-03-01T11:16:35;3.08;;;2.67;;
62929;SDS011;49036;42.782;23.108;2023-03-01T11:21:34;2.60;;;2.40;;
62929;SDS011;49036;42.782;23.108;2023-03-01T11:24:05;6.63;;;3.20;;
62929;SDS011;49036;42.782;23.108;2023-03-01T11:26:36;5.45;;;3.70;;
62929;SDS011;49036;42.782;23.108;2023-03-01T11:29:07;14.55;;;5.65;;
62929;SDS011;49036;42.782;23.108;2023-03-01T11:31:41;4.88;;;3.20;;
62929;SDS011;49036;42.782;23.108;2023-03-01T11:34:11;6.18;;;3.20;;
62929;SDS011;49036;42.782;23.108;2023-03-01T11:36:42;1.90;;;1.73;;
62929;SDS011;49036;42.782;23.108;2023-03-01T11:41:42;3.25;;;2.70;;
62929;SDS011;49036;42.782;23.108;2023-03-01T11:44:20;5.28;;;1.95;;
62929;SDS011;49036;42.782;23.108;2023-03-01T11:52:45;5.03;;;2.92;;
62929;SDS011;49036;42.782;23.108;2023-03-01T12:04:32;8.57;;;3.95;;
62929;SDS011;49036;42.782;23.108;2023-03-01T12:07:01;4.25;;;2.05;;
62929;SDS011;49036;42.782;23.108;2023-03-01T12:23:45;1.60;;;1.50;;
62929;SDS011;49036;42.782;23.108;2023-03-01T12:26:19;4.90;;;2.38;;
62929;SDS011;49036;42.782;23.108;2023-03-01T12:34:58;3.13;;;2.40;;
62929;SDS011;49036;42.782;23.108;2023-03-01T12:46:18;3.08;;;2.10;;
62929;SDS011;49036;42.782;23.108;2023-03-01T12:49:10;4.00;;;2.38;;
62929;SDS011;49036;42.782;23.108;2023-03-01T12:51:40;4.45;;;1.60;;
62929;SDS011;49036;42.782;23.108;2023-03-01T12:54:20;2.70;;;2.28;;
62929;SDS011;49036;42.782;23.108;2023-03-01T12:56:52;2.08;;;1.55;;
62929;SDS011;49036;42.782;23.108;2023-03-01T12:59:24;2.50;;;1.80;;
62929;SDS011;49036;42.782;23.108;2023-03-01T13:02:18;1.73;;;1.63;;
62929;SDS011;49036;42.782;23.108;2023-03-01T13:07:53;4.97;;;2.13;;
62929;SDS011;49036;42.782;23.108;2023-03-01T13:13:02;6.18;;;2.08;;
62929;SDS011;49036;42.782;23.108;2023-03-01T13:15:39;3.08;;;2.20;;
62929;SDS011;49036;42.782;23.108;2023-03-01T13:28:39;3.60;;;1.73;;
62929;SDS011;49036;42.782;23.108;2023-03-01T13:33:53;5.03;;;2.38;;
62929;SDS011;49036;42.782;23.108;2023-03-01T13:39:38;5.25;;;2.22;;
62929;SDS011;49036;42.782;23.108;2023-03-01T13:42:03;5.38;;;2.45;;
62929;SDS011;49036;42.782;23.108;2023-03-01T13:44:33;3.35;;;2.70;;
62929;SDS011;49036;42.782;23.108;2023-03-01T13:57:38;2.45;;;2.22;;
62929;SDS011;49036;42.782;23.108;2023-03-01T14:00:05;3.03;;;1.90;;
62929;SDS011;49036;42.782;23.108;2023-03-01T14:02:31;3.85;;;2.15;;
62929;SDS011;49036;42.782;23.108;2023-03-01T14:05:00;6.18;;;2.67;;
62929;SDS011;49036;42.782;23.108;2023-03-01T14:07:26;2.50;;;1.60;;
62929;SDS011;49036;42.782;23.108;2023-03-01T14:09:56;7.30;;;2.33;;
62929;SDS011;49036;42.782;23.108;2023-03-01T14:14:59;2.47;;;2.03;;
62929;SDS011;49036;42.782;23.108;2023-03-01T14:17:35;5.53;;;2.58;;
62929;SDS011;49036;42.782;23.108;2023-03-01T14:20:09;6.07;;;2.65;;
62929;SDS011;49036;42.782;23.108;2023-03-01T14:22:38;3.80;;;2.50;;
62929;SDS011;49036;42.782;23.108;2023-03-01T14:25:16;3.53;;;2.47;;
62929;SDS011;49036;42.782;23.108;2023-03-01T14:27:56;2.42;;;2.17;;
62929;SDS011;49036;42.782;23.108;2023-03-01T14:30:30;4.50;;;3.00;;
62929;SDS011;49036;42.782;23.108;2023-03-01T14:32:59;4.25;;;2.65;;
62929;SDS011;49036;42.782;23.108;2023-03-01T14:35:28;4.88;;;2.58;;
62929;SDS011;49036;42.782;23.108;2023-03-01T14:37:55;4.07;;;1.90;;
62929;SDS011;49036;42.782;23.108;2023-03-01T14:40:28;4.03;;;2.65;;
62929;SDS011;49036;42.782;23.108;2023-03-01T14:42:55;4.55;;;2.90;;
62929;SDS011;49036;42.782;23.108;2023-03-01T14:45:24;5.32;;;3.53;;
62929;SDS011;49036;42.782;23.108;2023-03-01T14:47:51;5.63;;;3.00;;
62929;SDS011;49036;42.782;23.108;2023-03-01T14:50:26;5.60;;;3.42;;
62929;SDS011;49036;42.782;23.108;2023-03-01T14:52:57;6.93;;;3.85;;
62929;SDS011;49036;42.782;23.108;2023-03-01T14:55:30;9.02;;;2.47;;
62929;SDS011;49036;42.782;23.108;2023-03-01T14:57:58;6.55;;;3.90;;
62929;SDS011;49036;42.782;23.108;2023-03-01T15:00:24;9.52;;;4.90;;
62929;SDS011;49036;42.782;23.108;2023-03-01T15:02:54;6.22;;;2.70;;
62929;SDS011;49036;42.782;23.108;2023-03-01T15:05:26;5.53;;;3.00;;
62929;SDS011;49036;42.782;23.108;2023-03-01T15:07:56;7.20;;;4.28;;
62929;SDS011;49036;42.782;23.108;2023-03-01T15:10:27;6.95;;;3.22;;
62929;SDS011;49036;42.782;23.108;2023-03-01T15:12:54;5.32;;;2.70;;
62929;SDS011;49036;42.782;23.108;2023-03-01T15:15:41;10.35;;;5.20;;
62929;SDS011;49036;42.782;23.108;2023-03-01T15:20:40;10.43;;;5.00;;
62929;SDS011;49036;42.782;23.108;2023-03-01T15:23:06;8.82;;;3.83;;
62929;SDS011;49036;42.782;23.108;2023-03-01T15:25:53;5.30;;;3.35;;
62929;SDS011;49036;42.782;23.108;2023-03-01T15:28:24;10.77;;;4.65;;
62929;SDS011;49036;42.782;23.108;2023-03-01T15:31:03;10.38;;;5.10;;
62929;SDS011;49036;42.782;23.108;2023-03-01T15:33:32;14.10;;;4.88;;
62929;SDS011;49036;42.782;23.108;2023-03-01T15:36:04;21.05;;;8.45;;
62929;SDS011;49036;42.782;23.108;2023-03-01T15:39:04;12.00;;;4.63;;
62929;SDS011;49036;42.782;23.108;2023-03-01T15:41:49;5.45;;;2.78;;
62929;SDS011;49036;42.782;23.108;2023-03-01T15:44:25;5.90;;;3.25;;
62929;SDS011;49036;42.782;23.108;2023-03-01T15:46:52;4.95;;;3.17;;
62929;SDS011;49036;42.782;23.108;2023-03-01T15:49:22;12.05;;;4.30;;
62929;SDS011;49036;42.782;23.108;2023-03-01T15:51:50;6.50;;;4.07;;
62929;SDS011;49036;42.782;23.108;2023-03-01T15:54:19;10.32;;;4.00;;
62929;SDS011;49036;42.782;23.108;2023-03-01T15:56:47;7.30;;;4.05;;
62929;SDS011;49036;42.782;23.108;2023-03-01T15:59:12;5.20;;;2.70;;
62929;SDS011;49036;42.782;23.108;2023-03-01T16:01:41;10.05;;;3.75;;
62929;SDS011;49036;42.782;23.108;2023-03-01T16:04:08;14.48;;;10.25;;
62929;SDS011;49036;42.782;23.108;2023-03-01T16:06:41;14.10;;;11.55;;
62929;SDS011;49036;42.782;23.108;2023-03-01T16:09:07;11.13;;;4.60;;
62929;SDS011;49036;42.782;23.108;2023-03-01T16:11:32;5.68;;;3.83;;
62929;SDS011;49036;42.782;23.108;2023-03-01T16:14:01;7.85;;;4.50;;
62929;SDS011;49036;42.782;23.108;2023-03-01T16:16:27;19.27;;;7.13;;
62929;SDS011;49036;42.782;23.108;2023-03-01T16:18:53;13.00;;;5.78;;
62929;SDS011;49036;42.782;23.108;2023-03-01T16:21:21;12.07;;;7.45;;
62929;SDS011;49036;42.782;23.108;2023-03-01T16:23:48;11.05;;;5.50;;
62929;SDS011;49036;42.782;23.108;2023-03-01T16:26:15;10.90;;;5.13;;
62929;SDS011;49036;42.782;23.108;2023-03-01T16:28:41;9.98;;;4.82;;
62929;SDS011;49036;42.782;23.108;2023-03-01T16:31:07;15.20;;;7.65;;
62929;SDS011;49036;42.782;23.108;2023-03-01T16:33:33;22.98;;;9.73;;
62929;SDS011;49036;42.782;23.108;2023-03-01T16:36:00;14.40;;;6.60;;
62929;SDS011;49036;42.782;23.108;2023-03-01T16:38:27;11.10;;;5.85;;
62929;SDS011;49036;42.782;23.108;2023-03-01T16:40:53;10.57;;;4.15;;
62929;SDS011;49036;42.782;23.108;2023-03-01T16:43:18;7.72;;;3.90;;
62929;SDS011;49036;42.782;23.108;2023-03-01T16:45:44;11.02;;;5.68;;
62929;SDS011;49036;42.782;23.108;2023-03-01T16:48:10;8.73;;;4.88;;
62929;SDS011;49036;42.782;23.108;2023-03-01T16:50:36;8.48;;;4.32;;
62929;SDS011;49036;42.782;23.108;2023-03-01T16:53:02;6.57;;;4.60;;
62929;SDS011;49036;42.782;23.108;2023-03-01T16:55:28;13.85;;;3.70;;
62929;SDS011;49036;42.782;23.108;2023-03-01T16:57:53;4.80;;;2.88;;
62929;SDS011;49036;42.782;23.108;2023-03-01T17:00:19;10.60;;;4.50;;
62929;SDS011;49036;42.782;23.108;2023-03-01T17:02:45;12.68;;;4.13;;
62929;SDS011;49036;42.782;23.108;2023-03-01T17:05:11;7.47;;;3.33;;
62929;SDS011;49036;42.782;23.108;2023-03-01T17:07:37;11.27;;;6.22;;
62929;SDS011;49036;42.782;23.108;2023-03-01T17:10:04;10.57;;;5.10;;